createdAt,value
2018-02-16T00:02:20.655Z,70.80
2018-02-16T00:04:49.688Z,78.23
2018-02-16T00:07:18.055Z,74.73
2018-02-16T00:09:46.327Z,79.03
2018-02-16T00:12:14.573Z,81.77
2018-02-16T00:14:43.618Z,64.90
2018-02-16T00:17:11.862Z,86.20
2018-02-16T00:19:40.187Z,71.20
2018-02-16T00:22:08.476Z,71.30
2018-02-16T00:24:36.763Z,86.67
2018-02-16T00:27:05.014Z,95.57
2018-02-16T00:29:34.111Z,84.80
2018-02-16T00:32:02.354Z,77.63
2018-02-16T00:34:30.609Z,85.67
2018-02-16T00:36:58.931Z,84.63
2018-02-16T00:39:27.386Z,61.47
2018-02-16T00:41:55.907Z,67.93
2018-02-16T00:44:24.138Z,77.33
2018-02-16T00:46:52.558Z,107.63
2018-02-16T00:49:20.894Z,103.60
2018-02-16T00:51:49.171Z,70.37
2018-02-16T00:54:17.406Z,89.67
2018-02-16T00:56:46.506Z,68.40
2018-02-16T00:59:14.765Z,70.93
2018-02-16T01:01:43.790Z,80.30
2018-02-16T01:04:12.038Z,82.07
2018-02-16T01:06:40.399Z,75.57
2018-02-16T01:09:09.531Z,65.43
2018-02-16T01:11:37.911Z,60.97
2018-02-16T01:14:06.178Z,72.50
2018-02-16T01:16:34.426Z,71.43
2018-02-16T01:19:03.446Z,68.83
2018-02-16T01:21:31.720Z,66.27
2018-02-16T01:24:00.022Z,72.27
2018-02-16T01:26:28.275Z,54.87
2018-02-16T01:28:56.551Z,75.17
2018-02-16T01:31:24.790Z,84.23
2018-02-16T01:33:53.922Z,79.27
2018-02-16T01:36:22.179Z,79.53
2018-02-16T01:38:50.459Z,77.17
2018-02-16T01:41:18.710Z,70.13
2018-02-16T01:43:47.756Z,67.97
2018-02-16T01:46:15.999Z,79.20
2018-02-16T01:48:44.253Z,73.73
2018-02-16T01:51:13.285Z,77.47
2018-02-16T01:53:41.535Z,64.70
2018-02-16T01:56:09.807Z,77.73
2018-02-16T01:58:38.210Z,71.63
2018-02-16T02:01:06.550Z,64.20
2018-02-16T02:03:35.608Z,69.03
2018-02-16T02:06:03.854Z,68.90
2018-02-16T02:08:32.129Z,71.23
2018-02-16T02:13:51.114Z,72.37
2018-02-16T02:16:19.370Z,85.73
2018-02-16T02:18:47.638Z,78.87
2018-02-16T02:21:16.656Z,85.07
2018-02-16T02:23:44.936Z,82.90
2018-02-16T02:26:13.204Z,85.63
2018-02-16T02:28:41.472Z,79.23
2018-02-16T02:31:09.745Z,86.30
2018-02-16T02:33:38.000Z,82.97
2018-02-16T02:36:06.272Z,93.10
2018-02-16T02:38:35.279Z,85.00
2018-02-16T02:41:03.542Z,89.40
2018-02-16T02:43:31.859Z,92.07
2018-02-16T02:46:00.120Z,92.07
2018-02-16T02:48:28.402Z,95.17
2018-02-16T02:50:56.659Z,89.53
2018-02-16T02:53:24.974Z,89.17
2018-02-16T02:55:54.758Z,85.03
2018-02-16T02:58:23.011Z,89.90
2018-02-16T03:00:51.291Z,88.83
2018-02-16T03:03:19.548Z,85.23
2018-02-16T03:05:47.943Z,81.37
2018-02-16T03:08:16.251Z,72.20
2018-02-16T03:10:44.513Z,81.60
2018-02-16T03:13:12.769Z,86.47
2018-02-16T03:15:41.039Z,78.83
2018-02-16T03:18:09.327Z,86.50
2018-02-16T03:20:37.610Z,82.23
2018-02-16T03:23:05.869Z,85.20
2018-02-16T03:25:34.152Z,79.43
2018-02-16T03:28:02.414Z,82.87
2018-02-16T03:30:30.681Z,81.90
2018-02-16T03:32:58.932Z,89.37
2018-02-16T03:35:27.972Z,75.87
2018-02-16T03:37:56.246Z,84.77
2018-02-16T03:40:24.509Z,80.03
2018-02-16T03:42:52.776Z,78.63
2018-02-16T03:45:21.039Z,78.40
2018-02-16T03:47:50.059Z,75.33
2018-02-16T03:50:18.410Z,76.20
2018-02-16T03:52:46.674Z,65.77
2018-02-16T03:55:15.744Z,73.37
2018-02-16T03:57:44.007Z,63.13
2018-02-16T04:00:12.622Z,77.33
2018-02-16T04:02:40.843Z,73.27
2018-02-16T04:05:09.110Z,79.63
2018-02-16T04:07:37.680Z,75.30
2018-02-16T04:10:05.975Z,71.73
2018-02-16T04:12:34.279Z,94.87
2018-02-16T04:15:02.533Z,72.53
2018-02-16T04:17:30.806Z,85.90
2018-02-16T04:19:59.073Z,84.10
2018-02-16T04:22:27.319Z,78.33
2018-02-16T04:24:55.582Z,88.43
2018-02-16T04:27:23.872Z,78.63
2018-02-16T04:29:52.231Z,71.57
2018-02-16T04:32:21.251Z,79.77
2018-02-16T04:34:49.518Z,94.53
2018-02-16T04:37:17.781Z,80.40
2018-02-16T04:39:46.778Z,74.73
2018-02-16T04:42:15.172Z,78.03
2018-02-16T04:44:43.431Z,78.40
2018-02-16T04:47:11.687Z,79.27
2018-02-16T04:49:40.710Z,92.80
2018-02-16T04:52:08.970Z,76.60
2018-02-16T04:54:37.236Z,73.27
2018-02-16T04:57:05.531Z,83.20
2018-02-16T04:59:33.801Z,70.97
2018-02-16T05:02:02.047Z,89.00
2018-02-16T05:04:31.241Z,86.00
2018-02-16T05:06:59.490Z,81.03
2018-02-16T05:09:27.754Z,90.30
2018-02-16T05:11:55.996Z,67.40
2018-02-16T05:14:24.254Z,77.73
2018-02-16T05:16:53.295Z,95.17
2018-02-16T05:19:21.558Z,93.90
2018-02-16T05:21:49.806Z,84.37
2018-02-16T05:24:18.059Z,88.80
2018-02-16T05:26:47.094Z,92.40
2018-02-16T05:29:15.358Z,94.03
2018-02-16T05:31:43.649Z,99.60
2018-02-16T05:34:11.894Z,94.17
2018-02-16T05:36:40.244Z,88.30
2018-02-16T05:39:08.492Z,83.40
2018-02-16T05:41:36.770Z,97.13
2018-02-16T05:44:05.041Z,92.53
2018-02-16T05:46:33.319Z,85.20
2018-02-16T05:49:01.712Z,76.93
2018-02-16T05:51:29.978Z,71.70
2018-02-16T05:53:58.272Z,99.77
2018-02-16T05:56:27.299Z,89.57
2018-02-16T05:58:55.576Z,96.23
2018-02-16T06:01:23.844Z,90.57
2018-02-16T06:03:52.110Z,76.63
2018-02-16T06:06:21.136Z,80.80
2018-02-16T06:08:49.548Z,88.63
2018-02-16T06:11:17.775Z,77.47
2018-02-16T06:13:46.195Z,81.87
2018-02-16T06:16:14.452Z,87.43
2018-02-16T06:18:42.744Z,75.77
2018-02-16T06:21:11.262Z,103.93
2018-02-16T06:23:40.299Z,75.97
2018-02-16T06:26:08.582Z,87.20
2018-02-16T06:28:36.849Z,80.60
2018-02-16T06:31:05.124Z,76.67
2018-02-16T06:33:33.374Z,91.50
2018-02-16T06:36:01.633Z,84.90
2018-02-16T06:38:30.062Z,88.43
2018-02-16T06:40:58.461Z,64.53
2018-02-16T06:43:26.694Z,75.63
2018-02-16T06:45:54.950Z,74.17
2018-02-16T06:48:23.221Z,73.87
2018-02-16T06:50:51.487Z,83.07
2018-02-16T06:53:19.850Z,107.03
2018-02-16T06:55:48.902Z,74.80
2018-02-16T06:58:17.168Z,81.47
2018-02-16T07:00:45.430Z,65.03
2018-02-16T07:03:13.861Z,75.93
2018-02-16T07:05:42.215Z,73.53
2018-02-16T07:08:10.429Z,72.40
2018-02-16T07:10:39.504Z,72.83
2018-02-16T07:13:07.759Z,60.57
2018-02-16T07:15:36.059Z,65.40
2018-02-16T07:18:04.269Z,71.90
2018-02-16T07:20:32.529Z,62.13
2018-02-16T07:23:00.827Z,69.87
2018-02-16T07:25:29.093Z,64.50
2018-02-16T07:27:57.346Z,65.57
2018-02-16T07:30:25.614Z,58.67
2018-02-16T07:32:54.651Z,60.73
2018-02-16T07:35:23.154Z,55.53
2018-02-16T07:37:51.433Z,54.67
2018-02-16T07:40:19.692Z,63.33
2018-02-16T07:42:47.960Z,54.13
2018-02-16T07:45:16.274Z,52.70
2018-02-16T07:47:45.307Z,50.17
2018-02-16T07:50:13.599Z,58.60
2018-02-16T07:52:41.851Z,55.10
2018-02-16T07:55:10.131Z,70.63
2018-02-16T07:57:38.383Z,58.03
2018-02-16T08:00:07.402Z,53.63
2018-02-16T08:02:35.670Z,50.03
2018-02-16T08:05:04.030Z,50.40
2018-02-16T08:07:33.026Z,42.90
2018-02-16T08:10:01.306Z,45.80
2018-02-16T08:12:29.558Z,44.00
2018-02-16T08:14:58.582Z,44.80
2018-02-16T08:17:26.842Z,45.83
2018-02-16T08:19:55.090Z,39.37
2018-02-16T08:22:24.146Z,46.50
2018-02-16T08:24:52.479Z,41.60
2018-02-16T08:27:21.482Z,34.57
2018-02-16T08:29:49.771Z,39.37
2018-02-16T08:32:18.072Z,41.97
2018-02-16T08:34:47.135Z,38.23
2018-02-16T08:37:15.386Z,43.17
2018-02-16T08:39:44.427Z,39.20
2018-02-16T08:42:12.675Z,41.17
2018-02-16T08:44:40.942Z,36.33
2018-02-16T08:47:09.187Z,36.23
2018-02-16T08:49:37.487Z,39.03
2018-02-16T08:52:05.733Z,37.57
2018-02-16T08:54:33.990Z,32.63
2018-02-16T08:57:02.238Z,38.03
2018-02-16T08:59:30.496Z,35.37
2018-02-16T09:01:58.747Z,34.37
2018-02-16T09:04:27.792Z,38.53
2018-02-16T09:06:56.063Z,32.97
2018-02-16T09:09:24.422Z,29.37
2018-02-16T09:11:52.915Z,35.97
2018-02-16T09:14:21.194Z,31.80
2018-02-16T09:16:49.557Z,32.03
2018-02-16T09:19:17.810Z,27.87
2018-02-16T09:21:46.084Z,31.83
2018-02-16T09:24:14.346Z,33.30
2018-02-16T09:26:43.386Z,27.10
2018-02-16T09:29:11.631Z,27.43
2018-02-16T09:31:39.938Z,32.10
2018-02-16T09:34:08.215Z,29.30
2018-02-16T09:36:38.290Z,26.83
2018-02-16T09:39:10.989Z,31.57
2018-02-16T09:41:42.608Z,32.53
2018-02-16T09:44:11.631Z,32.63
2018-02-16T09:46:39.887Z,27.10
2018-02-16T09:49:08.924Z,22.17
2018-02-16T09:51:37.245Z,23.17
2018-02-16T09:54:05.484Z,23.90
2018-02-16T09:56:34.530Z,21.50
2018-02-16T09:59:02.838Z,24.53
2018-02-16T10:01:31.102Z,21.87
2018-02-16T10:03:59.372Z,25.50
2018-02-16T10:06:27.605Z,24.10
2018-02-16T10:08:56.646Z,22.67
2018-02-16T10:11:25.042Z,22.63
2018-02-16T10:13:54.947Z,28.33
2018-02-16T10:16:23.263Z,23.43
2018-02-16T10:18:51.522Z,26.57
2018-02-16T10:21:19.786Z,21.40
2018-02-16T10:23:48.051Z,19.30
2018-02-16T10:26:16.324Z,28.30
2018-02-16T10:28:44.586Z,26.63
2018-02-16T10:31:12.842Z,23.37
2018-02-16T10:33:41.197Z,22.07
2018-02-16T10:36:09.459Z,22.33
2018-02-16T10:38:37.731Z,20.00
2018-02-16T10:41:05.983Z,23.93
2018-02-16T10:43:34.294Z,19.83
2018-02-16T10:46:03.327Z,28.07
2018-02-16T10:48:31.571Z,27.17
2018-02-16T10:50:59.846Z,28.17
2018-02-16T10:53:28.855Z,21.33
2018-02-16T10:55:57.131Z,22.07
2018-02-16T10:58:25.574Z,22.80
2018-02-16T11:00:53.818Z,18.33
2018-02-16T11:03:22.070Z,22.43
2018-02-16T11:05:50.323Z,20.60
2018-02-16T11:08:18.644Z,21.67
2018-02-16T11:10:47.028Z,22.17
2018-02-16T11:13:15.284Z,22.73
2018-02-16T11:15:43.718Z,19.70
2018-02-16T11:18:13.132Z,18.17
2018-02-16T11:20:42.327Z,19.33
2018-02-16T11:23:10.659Z,17.57
2018-02-16T11:25:38.985Z,23.97
2018-02-16T11:28:07.443Z,23.77
2018-02-16T11:30:35.662Z,22.00
2018-02-16T11:33:04.079Z,18.27
2018-02-16T11:35:32.307Z,23.07
2018-02-16T11:38:00.691Z,16.70
2018-02-16T11:40:28.931Z,13.70
2018-02-16T11:42:57.204Z,17.17
2018-02-16T11:45:26.238Z,20.27
2018-02-16T11:47:54.595Z,17.97
2018-02-16T11:50:22.884Z,17.17
2018-02-16T11:52:51.124Z,17.20
2018-02-16T11:55:20.159Z,19.77
2018-02-16T11:57:49.211Z,17.83
2018-02-16T12:00:17.514Z,15.47
2018-02-16T12:02:46.494Z,14.67
2018-02-16T12:05:14.923Z,18.33
2018-02-16T12:07:43.175Z,13.90
2018-02-16T12:10:11.520Z,15.67
2018-02-16T12:12:39.848Z,13.97
2018-02-16T12:15:08.110Z,15.10
2018-02-16T12:17:36.388Z,14.30
2018-02-16T12:20:05.443Z,12.93
2018-02-16T12:22:33.718Z,15.97
2018-02-16T12:25:01.971Z,16.77
2018-02-16T12:27:30.982Z,13.20
2018-02-16T12:29:59.252Z,14.70
2018-02-16T12:32:27.574Z,11.83
2018-02-16T12:34:55.849Z,13.20
2018-02-16T12:37:24.178Z,12.63
2018-02-16T12:39:52.518Z,11.20
2018-02-16T12:42:20.816Z,15.13
2018-02-16T12:44:49.834Z,12.93
2018-02-16T12:47:18.083Z,13.73
2018-02-16T12:49:47.148Z,16.40
2018-02-16T12:52:15.395Z,10.70
2018-02-16T12:54:43.659Z,10.93
2018-02-16T12:57:11.962Z,13.03
2018-02-16T12:59:40.206Z,11.67
2018-02-16T13:02:08.443Z,15.27
2018-02-16T13:04:36.702Z,11.03
2018-02-16T13:07:05.735Z,10.23
2018-02-16T13:09:34.312Z,14.33
2018-02-16T13:12:03.322Z,15.73
2018-02-16T13:14:31.591Z,13.03
2018-02-16T13:16:59.851Z,10.93
2018-02-16T13:19:30.168Z,16.23
2018-02-16T13:21:59.384Z,9.83
2018-02-16T13:24:28.334Z,14.77
2018-02-16T13:26:56.639Z,8.13
2018-02-16T13:29:24.941Z,11.40
2018-02-16T13:31:53.190Z,15.57
2018-02-16T13:34:21.442Z,10.03
2018-02-16T13:36:50.467Z,11.57
2018-02-16T13:39:18.758Z,8.50
2018-02-16T13:41:46.976Z,15.97
2018-02-16T13:44:16.056Z,11.33
2018-02-16T13:46:44.388Z,13.57
2018-02-16T13:49:13.119Z,8.40
2018-02-16T13:51:41.492Z,10.57
2018-02-16T13:54:11.263Z,9.20
2018-02-16T13:56:39.512Z,13.33
2018-02-16T13:59:07.779Z,12.93
2018-02-16T14:01:36.815Z,14.73
2018-02-16T14:04:05.094Z,9.17
2018-02-16T14:06:33.354Z,14.83
2018-02-16T14:09:01.601Z,11.00
2018-02-16T14:11:29.883Z,8.37
2018-02-16T14:13:58.161Z,9.77
2018-02-16T14:16:26.441Z,12.27
2018-02-16T14:18:54.659Z,15.37
2018-02-16T14:21:22.947Z,14.50
2018-02-16T14:23:51.380Z,11.17
2018-02-16T14:26:19.635Z,13.30
2018-02-16T14:28:47.889Z,8.43
2018-02-16T14:31:16.113Z,13.40
2018-02-16T14:33:45.580Z,15.80
2018-02-16T14:36:14.604Z,11.00
2018-02-16T14:38:42.920Z,10.30
2018-02-16T14:41:11.151Z,9.03
2018-02-16T14:43:39.470Z,11.23
2018-02-16T14:46:07.697Z,10.30
2018-02-16T14:48:35.963Z,16.77
2018-02-16T14:51:04.286Z,13.77
2018-02-16T14:53:32.560Z,11.90
2018-02-16T14:56:00.798Z,12.07
2018-02-16T14:58:29.059Z,14.07
2018-02-16T15:00:57.348Z,10.30
2018-02-16T15:03:25.586Z,9.33
2018-02-16T15:05:54.591Z,11.40
2018-02-16T15:08:23.442Z,12.23
2018-02-16T15:10:51.891Z,10.10
2018-02-16T15:13:20.147Z,9.57
2018-02-16T15:15:48.479Z,12.17
2018-02-16T15:18:16.742Z,16.13
2018-02-16T15:20:45.076Z,10.60
2018-02-16T15:23:13.308Z,12.40
2018-02-16T15:25:41.595Z,11.97
2018-02-16T15:28:09.819Z,9.40
2018-02-16T15:30:38.142Z,10.90
2018-02-16T15:33:07.166Z,13.43
2018-02-16T15:35:35.444Z,11.87
2018-02-16T15:38:03.784Z,9.30
2018-02-16T15:40:32.031Z,12.03
2018-02-16T15:43:00.291Z,12.07
2018-02-16T15:45:28.583Z,9.43
2018-02-16T15:47:56.857Z,9.13
2018-02-16T15:50:25.122Z,13.00
2018-02-16T15:52:53.391Z,8.37
2018-02-16T15:55:21.799Z,13.37
2018-02-16T15:57:50.983Z,10.47
2018-02-16T16:00:19.249Z,10.23
2018-02-16T16:02:47.486Z,7.77
2018-02-16T16:05:15.738Z,12.37
2018-02-16T16:07:44.768Z,8.07
2018-02-16T16:10:13.006Z,10.43
2018-02-16T16:12:42.133Z,11.10
2018-02-16T16:15:10.351Z,7.47
2018-02-16T16:17:38.666Z,14.10
2018-02-16T16:20:06.939Z,16.37
2018-02-16T16:22:35.380Z,7.67
2018-02-16T16:25:03.662Z,9.93
2018-02-16T16:27:32.298Z,7.77
2018-02-16T16:30:00.554Z,12.33
2018-02-16T16:32:28.847Z,8.77
2018-02-16T16:34:57.094Z,11.80
2018-02-16T16:37:26.123Z,8.43
2018-02-16T16:39:54.405Z,16.47
2018-02-16T16:42:22.647Z,12.63
2018-02-16T16:44:50.930Z,12.23
2018-02-16T16:47:19.278Z,11.10
2018-02-16T16:49:47.665Z,11.73
2018-02-16T16:52:16.703Z,14.83
2018-02-16T16:54:44.962Z,11.17
2018-02-16T16:57:13.248Z,8.73
2018-02-16T16:59:41.552Z,14.83
2018-02-16T17:02:09.858Z,16.30
2018-02-16T17:04:38.138Z,13.20
2018-02-16T17:07:06.446Z,17.13
2018-02-16T17:09:34.686Z,13.43
2018-02-16T17:12:02.959Z,8.33
2018-02-16T17:14:32.078Z,12.23
2018-02-16T17:17:00.339Z,16.63
2018-02-16T17:19:28.594Z,12.13
2018-02-16T17:21:56.879Z,11.90
2018-02-16T17:24:25.896Z,15.70
2018-02-16T17:26:54.204Z,14.00
2018-02-16T17:29:22.455Z,12.90
2018-02-16T17:31:50.723Z,9.60
2018-02-16T17:34:18.968Z,9.20
2018-02-16T17:36:47.260Z,16.17
2018-02-16T17:39:15.588Z,13.10
2018-02-16T17:41:43.826Z,15.63
2018-02-16T17:44:12.100Z,15.23
2018-02-16T17:46:40.355Z,11.83
2018-02-16T17:49:08.641Z,17.60
2018-02-16T17:51:36.961Z,13.50
2018-02-16T17:54:05.250Z,14.73
2018-02-16T17:56:34.276Z,11.60
2018-02-16T17:59:02.531Z,14.03
2018-02-16T18:01:31.534Z,14.83
2018-02-16T18:03:59.798Z,13.43
2018-02-16T18:06:28.102Z,11.87
2018-02-16T18:08:56.388Z,21.30
2018-02-16T18:11:24.657Z,19.43
2018-02-16T18:13:52.928Z,18.77
2018-02-16T18:16:21.269Z,15.47
2018-02-16T18:18:50.292Z,15.10
2018-02-16T18:21:18.549Z,14.13
2018-02-16T18:23:46.860Z,15.80
2018-02-16T18:26:15.172Z,13.47
2018-02-16T18:28:43.467Z,15.67
2018-02-16T18:31:12.499Z,11.40
2018-02-16T18:33:40.896Z,14.00
2018-02-16T18:36:09.199Z,13.17
2018-02-16T18:38:39.028Z,12.47
2018-02-16T18:41:08.058Z,15.97
2018-02-16T18:43:36.292Z,18.60
2018-02-16T18:46:04.668Z,17.20
2018-02-16T18:48:33.011Z,14.53
2018-02-16T18:51:02.783Z,15.97
2018-02-16T18:53:31.046Z,36.83
2018-02-16T18:55:59.519Z,37.63
2018-02-16T18:58:27.794Z,53.57
2018-02-16T19:00:56.051Z,30.77
2018-02-16T19:03:24.334Z,21.97
2018-02-16T19:05:52.650Z,17.47
2018-02-16T19:08:21.375Z,23.63
2018-02-16T19:10:51.122Z,22.00
2018-02-16T19:13:19.399Z,25.83
2018-02-16T19:15:47.665Z,22.30
2018-02-16T19:18:15.956Z,16.83
2018-02-16T19:20:45.920Z,20.10
2018-02-16T19:23:14.983Z,20.93
2018-02-16T19:25:43.345Z,23.13
2018-02-16T19:28:11.619Z,22.87
2018-02-16T19:30:39.911Z,20.23
2018-02-16T19:33:08.242Z,15.70
2018-02-16T19:35:36.474Z,15.17
2018-02-16T19:38:05.540Z,20.87
2018-02-16T19:40:33.811Z,20.33
2018-02-16T19:43:02.906Z,22.97
2018-02-16T19:45:32.095Z,25.97
2018-02-16T19:48:01.239Z,24.13
2018-02-16T19:50:29.746Z,20.97
2018-02-16T19:52:58.114Z,21.20
2018-02-16T19:55:26.324Z,25.07
2018-02-16T19:57:54.646Z,17.73
2018-02-16T20:00:23.755Z,19.27
2018-02-16T20:02:52.949Z,15.33
2018-02-16T20:05:21.249Z,17.23
2018-02-16T20:07:49.512Z,19.60
2018-02-16T20:10:17.779Z,19.43
2018-02-16T20:12:46.816Z,23.47
2018-02-16T20:15:15.096Z,20.43
2018-02-16T20:17:43.410Z,23.40
2018-02-16T20:20:11.710Z,25.93
2018-02-16T20:22:40.746Z,24.13
2018-02-16T20:25:09.836Z,19.60
2018-02-16T20:27:38.105Z,25.10
2018-02-16T20:30:06.494Z,25.83
2018-02-16T20:32:35.105Z,18.07
2018-02-16T20:35:03.335Z,17.43
2018-02-16T20:37:31.617Z,19.93
2018-02-16T20:40:00.444Z,21.47
2018-02-16T20:42:28.843Z,20.77
2018-02-16T20:44:57.920Z,23.43
2018-02-16T20:47:26.175Z,23.33
2018-02-16T20:49:54.552Z,21.00
2018-02-16T20:52:22.815Z,23.63
2018-02-16T20:54:52.666Z,28.30
2018-02-16T20:57:21.815Z,82.13
2018-02-16T20:59:50.116Z,39.03
2018-02-16T21:02:18.391Z,33.63
2018-02-16T21:04:46.720Z,30.03
2018-02-16T21:07:14.991Z,30.13
2018-02-16T21:09:43.300Z,41.17
2018-02-16T21:12:11.560Z,38.57
2018-02-16T21:14:39.822Z,31.43
2018-02-16T21:17:08.320Z,31.30
2018-02-16T21:19:36.589Z,35.00
2018-02-16T21:22:04.866Z,33.47
2018-02-16T21:24:33.390Z,33.27
2018-02-16T21:27:02.527Z,27.00
2018-02-16T21:29:30.878Z,23.70
2018-02-16T21:31:59.979Z,28.07
2018-02-16T21:34:28.260Z,30.90
2018-02-16T21:36:56.540Z,34.83
2018-02-16T21:39:24.823Z,23.07
2018-02-16T21:41:53.109Z,25.97
2018-02-16T21:44:21.373Z,22.27
2018-02-16T21:46:49.661Z,20.13
2018-02-16T21:49:18.016Z,24.00
2018-02-16T21:51:46.307Z,25.27
2018-02-16T21:54:14.582Z,26.77
2018-02-16T21:56:42.861Z,27.50
2018-02-16T21:59:11.123Z,22.00
2018-02-16T22:01:39.390Z,35.70
2018-02-16T22:04:07.687Z,32.57
2018-02-16T22:06:36.080Z,35.17
2018-02-16T22:09:04.379Z,27.33
2018-02-16T22:11:32.634Z,20.40
2018-02-16T22:14:00.955Z,23.10
2018-02-16T22:16:29.394Z,23.83
2018-02-16T22:18:57.798Z,22.83
2018-02-16T22:21:26.819Z,25.73
2018-02-16T22:23:55.090Z,25.70
2018-02-16T22:26:23.367Z,34.27
2018-02-16T22:28:51.655Z,24.57
2018-02-16T22:31:19.963Z,34.10
2018-02-16T22:33:48.330Z,30.23
2018-02-16T22:36:16.691Z,24.83
2018-02-16T22:38:44.971Z,27.50
2018-02-16T22:41:13.254Z,42.60
2018-02-16T22:43:41.508Z,36.97
2018-02-16T22:46:09.834Z,30.00
2018-02-16T22:48:38.070Z,33.40
2018-02-16T22:51:06.364Z,28.83
2018-02-16T22:53:34.623Z,38.23
2018-02-16T22:56:03.638Z,28.50
2018-02-16T22:58:31.951Z,32.60
2018-02-16T23:01:00.242Z,36.67
2018-02-16T23:03:28.523Z,33.90
2018-02-16T23:05:56.780Z,36.87
2018-02-16T23:08:25.031Z,40.90
2018-02-16T23:10:54.093Z,35.97
2018-02-16T23:13:22.423Z,45.90
2018-02-16T23:15:50.678Z,43.10
2018-02-16T23:18:19.744Z,43.73
2018-02-16T23:20:48.003Z,49.33
2018-02-16T23:23:16.314Z,44.93
2018-02-16T23:25:45.341Z,53.40
2018-02-16T23:28:13.598Z,48.30
2018-02-16T23:30:42.630Z,54.43
2018-02-16T23:33:10.985Z,61.40
2018-02-16T23:35:39.245Z,58.50
2018-02-16T23:38:07.612Z,56.93
2018-02-16T23:40:36.646Z,58.83
2018-02-16T23:43:04.871Z,58.63
2018-02-16T23:45:33.159Z,65.57
2018-02-16T23:48:01.747Z,59.13
2018-02-16T23:50:30.017Z,60.77
2018-02-16T23:52:58.266Z,67.13
2018-02-16T23:55:26.537Z,51.50
2018-02-16T23:57:54.841Z,48.07
